sensor_id;sensor_type;location;lat;lon;timestamp;temperature;humidity
65637;DHT22;52327;42.622;23.316;2023-07-09T00:00:57;19.07;55.10
65637;DHT22;52327;42.622;23.316;2023-07-09T00:03:23;19.07;54.76
65637;DHT22;52327;42.622;23.316;2023-07-09T00:05:49;19.14;54.81
65637;DHT22;52327;42.622;23.316;2023-07-09T00:10:50;19.34;54.34
65637;DHT22;52327;42.622;23.316;2023-07-09T00:13:15;19.04;54.98
65637;DHT22;52327;42.622;23.316;2023-07-09T00:15:40;19.15;54.85
65637;DHT22;52327;42.622;23.316;2023-07-09T00:18:08;19.04;55.05
65637;DHT22;52327;42.622;23.316;2023-07-09T00:20:34;18.89;55.11
65637;DHT22;52327;42.622;23.316;2023-07-09T00:23:00;18.89;55.47
65637;DHT22;52327;42.622;23.316;2023-07-09T00:25:25;19.07;55.47
65637;DHT22;52327;42.622;23.316;2023-07-09T00:27:51;18.94;55.14
65637;DHT22;52327;42.622;23.316;2023-07-09T00:30:20;18.83;55.07
65637;DHT22;52327;42.622;23.316;2023-07-09T00:32:47;18.97;55.24
65637;DHT22;52327;42.622;23.316;2023-07-09T00:35:13;18.93;54.80
65637;DHT22;52327;42.622;23.316;2023-07-09T00:37:44;19.00;54.72
65637;DHT22;52327;42.622;23.316;2023-07-09T00:40:14;19.18;54.69
65637;DHT22;52327;42.622;23.316;2023-07-09T00:42:44;18.83;55.17
65637;DHT22;52327;42.622;23.316;2023-07-09T00:45:19;18.79;55.41
65637;DHT22;52327;42.622;23.316;2023-07-09T00:47:57;18.60;55.60
65637;DHT22;52327;42.622;23.316;2023-07-09T00:50:48;18.77;55.17
65637;DHT22;52327;42.622;23.316;2023-07-09T00:53:22;18.83;54.92
65637;DHT22;52327;42.622;23.316;2023-07-09T00:56:01;18.79;54.92
65637;DHT22;52327;42.622;23.316;2023-07-09T00:58:28;18.84;54.73
65637;DHT22;52327;42.622;23.316;2023-07-09T01:00:57;18.94;54.65
65637;DHT22;52327;42.622;23.316;2023-07-09T01:03:31;18.91;54.43
65637;DHT22;52327;42.622;23.316;2023-07-09T01:05:58;18.99;54.15
65637;DHT22;52327;42.622;23.316;2023-07-09T01:08:24;18.74;54.61
65637;DHT22;52327;42.622;23.316;2023-07-09T01:10:50;18.91;54.47
65637;DHT22;52327;42.622;23.316;2023-07-09T01:13:17;18.96;54.11
65637;DHT22;52327;42.622;23.316;2023-07-09T01:15:45;18.90;54.39
65637;DHT22;52327;42.622;23.316;2023-07-09T01:18:12;18.96;54.07
65637;DHT22;52327;42.622;23.316;2023-07-09T01:20:38;18.94;54.12
65637;DHT22;52327;42.622;23.316;2023-07-09T01:23:04;18.97;54.53
65637;DHT22;52327;42.622;23.316;2023-07-09T01:25:31;18.94;54.02
65637;DHT22;52327;42.622;23.316;2023-07-09T01:27:57;18.79;54.77
65637;DHT22;52327;42.622;23.316;2023-07-09T01:30:31;18.63;54.87
65637;DHT22;52327;42.622;23.316;2023-07-09T01:32:59;18.84;55.05
65637;DHT22;52327;42.622;23.316;2023-07-09T01:35:26;18.56;54.87
65637;DHT22;52327;42.622;23.316;2023-07-09T01:37:54;18.53;55.09
65637;DHT22;52327;42.622;23.316;2023-07-09T01:40:22;18.59;55.16
65637;DHT22;52327;42.622;23.316;2023-07-09T01:42:49;18.57;55.23
65637;DHT22;52327;42.622;23.316;2023-07-09T01:45:15;18.59;54.94
65637;DHT22;52327;42.622;23.316;2023-07-09T01:47:41;18.57;54.46
65637;DHT22;52327;42.622;23.316;2023-07-09T01:50:10;18.59;54.54
65637;DHT22;52327;42.622;23.316;2023-07-09T01:52:38;18.46;54.55
65637;DHT22;52327;42.622;23.316;2023-07-09T01:55:07;18.25;54.67
65637;DHT22;52327;42.622;23.316;2023-07-09T01:57:33;18.30;54.83
65637;DHT22;52327;42.622;23.316;2023-07-09T02:00:19;18.46;55.56
65637;DHT22;52327;42.622;23.316;2023-07-09T02:02:46;18.24;55.10
65637;DHT22;52327;42.622;23.316;2023-07-09T02:05:14;18.48;55.16
65637;DHT22;52327;42.622;23.316;2023-07-09T02:07:40;18.39;54.90
65637;DHT22;52327;42.622;23.316;2023-07-09T02:10:06;18.22;54.97
65637;DHT22;52327;42.622;23.316;2023-07-09T02:12:32;18.19;54.89
65637;DHT22;52327;42.622;23.316;2023-07-09T02:14:57;18.49;54.76
65637;DHT22;52327;42.622;23.316;2023-07-09T02:17:23;18.42;55.02
65637;DHT22;52327;42.622;23.316;2023-07-09T02:19:48;18.70;54.46
65637;DHT22;52327;42.622;23.316;2023-07-09T02:22:14;18.53;54.60
65637;DHT22;52327;42.622;23.316;2023-07-09T02:24:39;18.83;54.87
65637;DHT22;52327;42.622;23.316;2023-07-09T02:27:07;18.71;54.44
65637;DHT22;52327;42.622;23.316;2023-07-09T02:29:33;18.53;54.95
65637;DHT22;52327;42.622;23.316;2023-07-09T02:32:00;18.63;55.02
65637;DHT22;52327;42.622;23.316;2023-07-09T02:34:26;18.63;55.43
65637;DHT22;52327;42.622;23.316;2023-07-09T02:36:53;18.36;56.40
65637;DHT22;52327;42.622;23.316;2023-07-09T02:39:20;18.35;56.84
65637;DHT22;52327;42.622;23.316;2023-07-09T02:41:46;18.09;58.00
65637;DHT22;52327;42.622;23.316;2023-07-09T02:44:12;18.02;57.50
65637;DHT22;52327;42.622;23.316;2023-07-09T02:46:38;17.91;58.61
65637;DHT22;52327;42.622;23.316;2023-07-09T02:49:05;17.81;58.36
65637;DHT22;52327;42.622;23.316;2023-07-09T02:51:32;17.61;58.67
65637;DHT22;52327;42.622;23.316;2023-07-09T02:53:59;17.38;59.07
65637;DHT22;52327;42.622;23.316;2023-07-09T02:56:26;17.28;59.60
65637;DHT22;52327;42.622;23.316;2023-07-09T02:58:52;17.03;59.68
65637;DHT22;52327;42.622;23.316;2023-07-09T03:01:17;17.02;59.90
65637;DHT22;52327;42.622;23.316;2023-07-09T03:03:43;16.92;60.92
65637;DHT22;52327;42.622;23.316;2023-07-09T03:06:09;16.73;61.54
65637;DHT22;52327;42.622;23.316;2023-07-09T03:08:35;16.72;61.46
65637;DHT22;52327;42.622;23.316;2023-07-09T03:11:10;16.76;60.71
65637;DHT22;52327;42.622;23.316;2023-07-09T03:13:36;16.82;60.06
65637;DHT22;52327;42.622;23.316;2023-07-09T03:16:01;17.02;59.57
65637;DHT22;52327;42.622;23.316;2023-07-09T03:18:28;17.26;59.43
65637;DHT22;52327;42.622;23.316;2023-07-09T03:20:53;17.50;59.73
65637;DHT22;52327;42.622;23.316;2023-07-09T03:23:19;17.54;59.31
65637;DHT22;52327;42.622;23.316;2023-07-09T03:25:44;17.47;58.13
65637;DHT22;52327;42.622;23.316;2023-07-09T03:28:11;17.55;57.62
65637;DHT22;52327;42.622;23.316;2023-07-09T03:30:44;17.58;57.50
65637;DHT22;52327;42.622;23.316;2023-07-09T03:33:11;17.73;57.31
65637;DHT22;52327;42.622;23.316;2023-07-09T03:35:40;17.81;57.16
65637;DHT22;52327;42.622;23.316;2023-07-09T03:38:10;17.94;57.06
65637;DHT22;52327;42.622;23.316;2023-07-09T03:40:36;18.01;57.54
65637;DHT22;52327;42.622;23.316;2023-07-09T03:43:04;18.10;57.26
65637;DHT22;52327;42.622;23.316;2023-07-09T03:45:30;18.10;56.73
65637;DHT22;52327;42.622;23.316;2023-07-09T03:47:56;18.09;57.43
65637;DHT22;52327;42.622;23.316;2023-07-09T03:50:21;18.18;57.06
65637;DHT22;52327;42.622;23.316;2023-07-09T03:52:47;18.25;56.93
65637;DHT22;52327;42.622;23.316;2023-07-09T03:55:12;18.30;56.61
65637;DHT22;52327;42.622;23.316;2023-07-09T03:57:38;18.38;56.87
65637;DHT22;52327;42.622;23.316;2023-07-09T04:00:04;18.49;56.53
65637;DHT22;52327;42.622;23.316;2023-07-09T04:02:30;18.45;56.45
65637;DHT22;52327;42.622;23.316;2023-07-09T04:04:56;18.53;55.97
65637;DHT22;52327;42.622;23.316;2023-07-09T04:07:22;18.61;56.72
65637;DHT22;52327;42.622;23.316;2023-07-09T04:09:48;18.71;56.82
65637;DHT22;52327;42.622;23.316;2023-07-09T04:12:14;18.93;56.15
65637;DHT22;52327;42.622;23.316;2023-07-09T04:14:39;18.83;56.06
65637;DHT22;52327;42.622;23.316;2023-07-09T04:17:06;18.93;56.46
65637;DHT22;52327;42.622;23.316;2023-07-09T04:19:31;19.04;55.48
65637;DHT22;52327;42.622;23.316;2023-07-09T04:21:57;18.93;55.58
65637;DHT22;52327;42.622;23.316;2023-07-09T04:24:22;18.80;55.91
65637;DHT22;52327;42.622;23.316;2023-07-09T04:26:48;18.80;56.18
65637;DHT22;52327;42.622;23.316;2023-07-09T04:29:14;18.90;55.89
65637;DHT22;52327;42.622;23.316;2023-07-09T04:31:40;18.89;56.43
65637;DHT22;52327;42.622;23.316;2023-07-09T04:34:06;18.99;56.43
65637;DHT22;52327;42.622;23.316;2023-07-09T04:36:31;19.01;55.61
65637;DHT22;52327;42.622;23.316;2023-07-09T04:39:00;18.87;55.96
65637;DHT22;52327;42.622;23.316;2023-07-09T04:41:25;19.03;55.85
65637;DHT22;52327;42.622;23.316;2023-07-09T04:43:54;19.06;55.82
65637;DHT22;52327;42.622;23.316;2023-07-09T04:46:22;19.01;55.61
65637;DHT22;52327;42.622;23.316;2023-07-09T04:48:56;18.93;56.04
65637;DHT22;52327;42.622;23.316;2023-07-09T04:51:22;18.91;56.29
65637;DHT22;52327;42.622;23.316;2023-07-09T04:53:47;18.96;55.44
65637;DHT22;52327;42.622;23.316;2023-07-09T04:56:22;18.94;56.26
65637;DHT22;52327;42.622;23.316;2023-07-09T04:58:49;19.00;55.71
65637;DHT22;52327;42.622;23.316;2023-07-09T05:01:14;19.00;56.16
65637;DHT22;52327;42.622;23.316;2023-07-09T05:03:40;19.10;55.49
65637;DHT22;52327;42.622;23.316;2023-07-09T05:06:05;19.17;55.56
65637;DHT22;52327;42.622;23.316;2023-07-09T05:08:31;19.14;56.27
65637;DHT22;52327;42.622;23.316;2023-07-09T05:10:57;19.21;56.44
65637;DHT22;52327;42.622;23.316;2023-07-09T05:13:25;19.31;55.57
65637;DHT22;52327;42.622;23.316;2023-07-09T05:15:52;19.11;55.45
65637;DHT22;52327;42.622;23.316;2023-07-09T05:18:18;18.99;55.59
65637;DHT22;52327;42.622;23.316;2023-07-09T05:20:45;19.03;55.80
65637;DHT22;52327;42.622;23.316;2023-07-09T05:23:11;19.08;56.35
65637;DHT22;52327;42.622;23.316;2023-07-09T05:25:37;19.08;55.74
65637;DHT22;52327;42.622;23.316;2023-07-09T05:28:03;18.97;56.47
65637;DHT22;52327;42.622;23.316;2023-07-09T05:30:29;18.93;56.17
65637;DHT22;52327;42.622;23.316;2023-07-09T05:32:55;18.99;56.50
65637;DHT22;52327;42.622;23.316;2023-07-09T05:35:23;18.94;56.23
65637;DHT22;52327;42.622;23.316;2023-07-09T05:37:49;18.89;56.10
65637;DHT22;52327;42.622;23.316;2023-07-09T05:40:14;18.99;56.32
65637;DHT22;52327;42.622;23.316;2023-07-09T05:42:40;19.08;56.23
65637;DHT22;52327;42.622;23.316;2023-07-09T05:45:06;19.11;55.95
65637;DHT22;52327;42.622;23.316;2023-07-09T05:47:31;19.24;56.01
65637;DHT22;52327;42.622;23.316;2023-07-09T05:49:57;19.28;55.70
65637;DHT22;52327;42.622;23.316;2023-07-09T05:52:23;19.35;55.91
65637;DHT22;52327;42.622;23.316;2023-07-09T05:54:49;19.27;55.21
65637;DHT22;52327;42.622;23.316;2023-07-09T05:57:15;19.44;56.06
65637;DHT22;52327;42.622;23.316;2023-07-09T05:59:41;19.47;55.36
65637;DHT22;52327;42.622;23.316;2023-07-09T06:02:14;19.51;55.93
65637;DHT22;52327;42.622;23.316;2023-07-09T06:04:40;19.55;54.44
65637;DHT22;52327;42.622;23.316;2023-07-09T06:07:05;19.57;55.75
65637;DHT22;52327;42.622;23.316;2023-07-09T06:09:32;19.55;55.96
65637;DHT22;52327;42.622;23.316;2023-07-09T06:11:58;19.63;56.97
65637;DHT22;52327;42.622;23.316;2023-07-09T06:14:24;19.81;56.49
65637;DHT22;52327;42.622;23.316;2023-07-09T06:16:49;19.79;54.41
65637;DHT22;52327;42.622;23.316;2023-07-09T06:19:15;19.69;54.79
65637;DHT22;52327;42.622;23.316;2023-07-09T06:21:40;19.66;54.61
65637;DHT22;52327;42.622;23.316;2023-07-09T06:24:07;19.54;54.58
65637;DHT22;52327;42.622;23.316;2023-07-09T06:26:33;19.63;54.26
65637;DHT22;52327;42.622;23.316;2023-07-09T06:28:58;19.79;54.81
65637;DHT22;52327;42.622;23.316;2023-07-09T06:31:24;19.79;55.44
65637;DHT22;52327;42.622;23.316;2023-07-09T06:33:50;19.73;55.13
65637;DHT22;52327;42.622;23.316;2023-07-09T06:36:17;19.86;56.32
65637;DHT22;52327;42.622;23.316;2023-07-09T06:38:43;19.94;55.06
65637;DHT22;52327;42.622;23.316;2023-07-09T06:41:08;19.79;55.31
65637;DHT22;52327;42.622;23.316;2023-07-09T06:43:34;20.03;56.99
65637;DHT22;52327;42.622;23.316;2023-07-09T06:46:01;20.03;55.41
65637;DHT22;52327;42.622;23.316;2023-07-09T06:48:28;19.93;56.28
65637;DHT22;52327;42.622;23.316;2023-07-09T06:50:55;19.96;57.37
65637;DHT22;52327;42.622;23.316;2023-07-09T06:53:21;20.02;56.61
65637;DHT22;52327;42.622;23.316;2023-07-09T06:55:47;20.06;56.34
65637;DHT22;52327;42.622;23.316;2023-07-09T06:58:15;20.02;56.88
65637;DHT22;52327;42.622;23.316;2023-07-09T07:00:41;20.16;56.13
65637;DHT22;52327;42.622;23.316;2023-07-09T07:03:06;20.20;56.42
65637;DHT22;52327;42.622;23.316;2023-07-09T07:05:33;20.24;56.48
65637;DHT22;52327;42.622;23.316;2023-07-09T07:07:59;20.02;56.97
65637;DHT22;52327;42.622;23.316;2023-07-09T07:10:25;20.20;56.03
65637;DHT22;52327;42.622;23.316;2023-07-09T07:12:52;20.24;57.47
65637;DHT22;52327;42.622;23.316;2023-07-09T07:15:18;20.39;56.99
65637;DHT22;52327;42.622;23.316;2023-07-09T07:17:44;20.53;57.36
65637;DHT22;52327;42.622;23.316;2023-07-09T07:20:11;20.45;56.78
65637;DHT22;52327;42.622;23.316;2023-07-09T07:22:38;20.63;56.45
65637;DHT22;52327;42.622;23.316;2023-07-09T07:25:05;20.82;56.74
65637;DHT22;52327;42.622;23.316;2023-07-09T07:27:30;20.63;55.37
65637;DHT22;52327;42.622;23.316;2023-07-09T07:29:56;20.53;54.28
65637;DHT22;52327;42.622;23.316;2023-07-09T07:32:22;20.65;55.84
65637;DHT22;52327;42.622;23.316;2023-07-09T07:34:47;20.92;55.35
65637;DHT22;52327;42.622;23.316;2023-07-09T07:37:14;20.85;55.41
65637;DHT22;52327;42.622;23.316;2023-07-09T07:39:39;20.92;56.13
65637;DHT22;52327;42.622;23.316;2023-07-09T07:42:06;21.05;55.47
65637;DHT22;52327;42.622;23.316;2023-07-09T07:44:31;21.38;54.89
65637;DHT22;52327;42.622;23.316;2023-07-09T07:46:58;21.33;54.77
65637;DHT22;52327;42.622;23.316;2023-07-09T07:49:23;21.11;54.17
65637;DHT22;52327;42.622;23.316;2023-07-09T07:51:49;20.91;55.37
65637;DHT22;52327;42.622;23.316;2023-07-09T07:54:14;20.92;54.69
65637;DHT22;52327;42.622;23.316;2023-07-09T07:56:41;21.05;55.08
65637;DHT22;52327;42.622;23.316;2023-07-09T07:59:07;21.29;54.67
65637;DHT22;52327;42.622;23.316;2023-07-09T08:01:32;21.09;53.78
65637;DHT22;52327;42.622;23.316;2023-07-09T08:04:01;21.04;55.49
65637;DHT22;52327;42.622;23.316;2023-07-09T08:06:27;21.22;55.23
65637;DHT22;52327;42.622;23.316;2023-07-09T08:08:52;21.38;55.44
65637;DHT22;52327;42.622;23.316;2023-07-09T08:11:18;21.56;55.31
65637;DHT22;52327;42.622;23.316;2023-07-09T08:13:43;21.52;53.50
65637;DHT22;52327;42.622;23.316;2023-07-09T08:16:09;21.63;55.38
65637;DHT22;52327;42.622;23.316;2023-07-09T08:18:37;21.72;54.30
65637;DHT22;52327;42.622;23.316;2023-07-09T08:21:03;21.52;54.50
65637;DHT22;52327;42.622;23.316;2023-07-09T08:23:29;21.69;55.13
65637;DHT22;52327;42.622;23.316;2023-07-09T08:25:55;21.87;54.82
65637;DHT22;52327;42.622;23.316;2023-07-09T08:28:21;21.89;52.98
65637;DHT22;52327;42.622;23.316;2023-07-09T08:30:46;21.84;53.29
65637;DHT22;52327;42.622;23.316;2023-07-09T08:33:12;21.83;54.80
65637;DHT22;52327;42.622;23.316;2023-07-09T08:35:37;22.04;53.56
65637;DHT22;52327;42.622;23.316;2023-07-09T08:38:03;21.98;53.37
65637;DHT22;52327;42.622;23.316;2023-07-09T08:40:29;21.97;53.13
65637;DHT22;52327;42.622;23.316;2023-07-09T08:43:02;21.92;53.95
65637;DHT22;52327;42.622;23.316;2023-07-09T08:45:38;22.10;54.32
65637;DHT22;52327;42.622;23.316;2023-07-09T08:48:15;22.15;52.73
65637;DHT22;52327;42.622;23.316;2023-07-09T08:50:47;21.89;53.51
65637;DHT22;52327;42.622;23.316;2023-07-09T08:53:19;22.24;53.56
65637;DHT22;52327;42.622;23.316;2023-07-09T08:55:48;22.56;53.14
65637;DHT22;52327;42.622;23.316;2023-07-09T08:58:22;22.18;52.69
65637;DHT22;52327;42.622;23.316;2023-07-09T09:00:53;22.11;52.47
65637;DHT22;52327;42.622;23.316;2023-07-09T09:05:57;22.21;52.95
65637;DHT22;52327;42.622;23.316;2023-07-09T09:11:21;22.30;53.08
65637;DHT22;52327;42.622;23.316;2023-07-09T09:13:50;22.48;52.87
65637;DHT22;52327;42.622;23.316;2023-07-09T09:16:26;22.62;53.60
65637;DHT22;52327;42.622;23.316;2023-07-09T09:18:55;22.62;53.16
65637;DHT22;52327;42.622;23.316;2023-07-09T09:21:40;22.72;52.42
65637;DHT22;52327;42.622;23.316;2023-07-09T09:24:17;22.45;52.96
65637;DHT22;52327;42.622;23.316;2023-07-09T09:26:43;22.55;53.40
65637;DHT22;52327;42.622;23.316;2023-07-09T09:29:12;22.48;52.27
65637;DHT22;52327;42.622;23.316;2023-07-09T09:31:38;22.24;52.69
65637;DHT22;52327;42.622;23.316;2023-07-09T09:34:03;22.35;52.95
65637;DHT22;52327;42.622;23.316;2023-07-09T09:36:31;22.55;52.90
65637;DHT22;52327;42.622;23.316;2023-07-09T09:39:01;22.41;52.61
65637;DHT22;52327;42.622;23.316;2023-07-09T09:41:30;22.41;53.34
65637;DHT22;52327;42.622;23.316;2023-07-09T09:43:56;22.55;54.01
65637;DHT22;52327;42.622;23.316;2023-07-09T09:46:24;22.41;52.35
65637;DHT22;52327;42.622;23.316;2023-07-09T09:48:53;22.41;52.04
65637;DHT22;52327;42.622;23.316;2023-07-09T09:51:19;22.58;53.12
65637;DHT22;52327;42.622;23.316;2023-07-09T09:53:57;22.85;52.41
65637;DHT22;52327;42.622;23.316;2023-07-09T09:56:27;22.85;52.67
65637;DHT22;52327;42.622;23.316;2023-07-09T09:58:55;22.95;51.39
65637;DHT22;52327;42.622;23.316;2023-07-09T10:01:29;23.03;51.30
65637;DHT22;52327;42.622;23.316;2023-07-09T10:03:56;22.81;52.06
65637;DHT22;52327;42.622;23.316;2023-07-09T10:06:38;22.85;52.04
65637;DHT22;52327;42.622;23.316;2023-07-09T10:14:51;22.81;51.66
65637;DHT22;52327;42.622;23.316;2023-07-09T10:23:13;22.84;51.79
65637;DHT22;52327;42.622;23.316;2023-07-09T10:25:42;23.16;51.07
65637;DHT22;52327;42.622;23.316;2023-07-09T10:28:24;23.09;49.75
65637;DHT22;52327;42.622;23.316;2023-07-09T10:31:00;23.12;50.21
65637;DHT22;52327;42.622;23.316;2023-07-09T10:33:40;23.33;50.56
65637;DHT22;52327;42.622;23.316;2023-07-09T10:41:13;23.33;48.72
65637;DHT22;52327;42.622;23.316;2023-07-09T10:43:50;23.54;49.51
65637;DHT22;52327;42.622;23.316;2023-07-09T10:46:23;23.23;46.23
65637;DHT22;52327;42.622;23.316;2023-07-09T10:48:54;23.49;48.48
65637;DHT22;52327;42.622;23.316;2023-07-09T10:54:04;23.42;50.74
65637;DHT22;52327;42.622;23.316;2023-07-09T10:56:34;23.53;48.22
65637;DHT22;52327;42.622;23.316;2023-07-09T10:59:36;23.60;48.47
65637;DHT22;52327;42.622;23.316;2023-07-09T11:02:01;23.74;48.26
65637;DHT22;52327;42.622;23.316;2023-07-09T11:04:37;23.60;47.67
65637;DHT22;52327;42.622;23.316;2023-07-09T11:07:09;23.66;46.41
65637;DHT22;52327;42.622;23.316;2023-07-09T11:09:39;23.70;45.74
65637;DHT22;52327;42.622;23.316;2023-07-09T11:12:10;23.97;45.14
65637;DHT22;52327;42.622;23.316;2023-07-09T11:14:48;24.04;45.68
65637;DHT22;52327;42.622;23.316;2023-07-09T11:17:18;24.08;44.54
65637;DHT22;52327;42.622;23.316;2023-07-09T11:19:55;23.98;45.63
65637;DHT22;52327;42.622;23.316;2023-07-09T11:22:23;24.09;45.20
65637;DHT22;52327;42.622;23.316;2023-07-09T11:25:06;24.00;44.29
65637;DHT22;52327;42.622;23.316;2023-07-09T11:27:32;24.15;44.92
65637;DHT22;52327;42.622;23.316;2023-07-09T11:30:00;24.12;44.05
65637;DHT22;52327;42.622;23.316;2023-07-09T11:32:27;24.22;44.74
65637;DHT22;52327;42.622;23.316;2023-07-09T11:34:53;24.17;45.28
65637;DHT22;52327;42.622;23.316;2023-07-09T11:37:20;24.48;45.85
65637;DHT22;52327;42.622;23.316;2023-07-09T11:39:49;24.28;43.84
65637;DHT22;52327;42.622;23.316;2023-07-09T11:42:33;24.32;44.92
65637;DHT22;52327;42.622;23.316;2023-07-09T11:45:13;24.52;43.75
65637;DHT22;52327;42.622;23.316;2023-07-09T11:47:54;24.40;42.99
65637;DHT22;52327;42.622;23.316;2023-07-09T11:50:28;24.68;43.85
65637;DHT22;52327;42.622;23.316;2023-07-09T11:55:40;24.79;42.74
65637;DHT22;52327;42.622;23.316;2023-07-09T11:58:15;24.75;43.03
65637;DHT22;52327;42.622;23.316;2023-07-09T12:00:48;24.82;44.12
65637;DHT22;52327;42.622;23.316;2023-07-09T12:03:23;25.00;43.01
65637;DHT22;52327;42.622;23.316;2023-07-09T12:05:55;25.09;41.62
65637;DHT22;52327;42.622;23.316;2023-07-09T12:08:35;25.14;41.46
65637;DHT22;52327;42.622;23.316;2023-07-09T12:11:02;25.34;42.83
65637;DHT22;52327;42.622;23.316;2023-07-09T12:13:27;25.27;41.32
65637;DHT22;52327;42.622;23.316;2023-07-09T12:15:53;25.04;40.43
65637;DHT22;52327;42.622;23.316;2023-07-09T12:18:18;25.30;41.32
65637;DHT22;52327;42.622;23.316;2023-07-09T12:20:53;25.65;42.08
65637;DHT22;52327;42.622;23.316;2023-07-09T12:23:29;25.61;42.94
65637;DHT22;52327;42.622;23.316;2023-07-09T12:25:59;25.47;40.87
65637;DHT22;52327;42.622;23.316;2023-07-09T12:28:26;25.40;40.68
65637;DHT22;52327;42.622;23.316;2023-07-09T12:30:53;25.24;42.47
65637;DHT22;52327;42.622;23.316;2023-07-09T12:33:21;25.35;42.06
65637;DHT22;52327;42.622;23.316;2023-07-09T12:35:49;25.72;41.57
65637;DHT22;52327;42.622;23.316;2023-07-09T12:38:18;25.64;42.01
65637;DHT22;52327;42.622;23.316;2023-07-09T12:40:45;25.82;41.83
65637;DHT22;52327;42.622;23.316;2023-07-09T12:43:12;25.84;40.90
65637;DHT22;52327;42.622;23.316;2023-07-09T12:45:37;25.50;41.37
65637;DHT22;52327;42.622;23.316;2023-07-09T12:48:03;25.78;41.98
65637;DHT22;52327;42.622;23.316;2023-07-09T12:50:34;25.86;41.70
65637;DHT22;52327;42.622;23.316;2023-07-09T12:53:20;25.81;41.82
65637;DHT22;52327;42.622;23.316;2023-07-09T12:55:51;25.89;41.82
65637;DHT22;52327;42.622;23.316;2023-07-09T12:58:22;26.29;41.33
65637;DHT22;52327;42.622;23.316;2023-07-09T13:00:52;26.11;40.64
65637;DHT22;52327;42.622;23.316;2023-07-09T13:03:26;26.42;40.41
65637;DHT22;52327;42.622;23.316;2023-07-09T13:05:55;26.76;39.47
65637;DHT22;52327;42.622;23.316;2023-07-09T13:08:21;26.76;40.15
65637;DHT22;52327;42.622;23.316;2023-07-09T13:10:47;26.60;40.31
65637;DHT22;52327;42.622;23.316;2023-07-09T13:13:16;27.12;39.83
65637;DHT22;52327;42.622;23.316;2023-07-09T13:15:44;27.20;38.75
65637;DHT22;52327;42.622;23.316;2023-07-09T13:18:13;27.05;39.82
65637;DHT22;52327;42.622;23.316;2023-07-09T13:20:41;27.15;37.96
65637;DHT22;52327;42.622;23.316;2023-07-09T13:23:18;26.93;40.22
65637;DHT22;52327;42.622;23.316;2023-07-09T13:25:44;27.25;39.93
65637;DHT22;52327;42.622;23.316;2023-07-09T13:30:47;26.46;41.89
65637;DHT22;52327;42.622;23.316;2023-07-09T13:33:13;27.24;40.51
65637;DHT22;52327;42.622;23.316;2023-07-09T13:35:40;27.21;39.79
65637;DHT22;52327;42.622;23.316;2023-07-09T13:38:16;27.56;39.66
65637;DHT22;52327;42.622;23.316;2023-07-09T13:40:49;27.27;40.40
65637;DHT22;52327;42.622;23.316;2023-07-09T13:43:33;26.94;41.29
65637;DHT22;52327;42.622;23.316;2023-07-09T13:46:01;26.69;40.76
65637;DHT22;52327;42.622;23.316;2023-07-09T13:48:29;27.62;40.41
65637;DHT22;52327;42.622;23.316;2023-07-09T13:50:55;28.33;38.96
65637;DHT22;52327;42.622;23.316;2023-07-09T13:53:25;28.33;38.26
65637;DHT22;52327;42.622;23.316;2023-07-09T13:55:52;28.26;37.73
65637;DHT22;52327;42.622;23.316;2023-07-09T13:58:19;28.84;37.20
65637;DHT22;52327;42.622;23.316;2023-07-09T14:00:47;29.78;37.24
65637;DHT22;52327;42.622;23.316;2023-07-09T14:03:24;29.74;35.76
65637;DHT22;52327;42.622;23.316;2023-07-09T14:05:50;29.28;36.25
65637;DHT22;52327;42.622;23.316;2023-07-09T14:08:16;29.06;37.33
65637;DHT22;52327;42.622;23.316;2023-07-09T14:10:42;28.09;37.69
65637;DHT22;52327;42.622;23.316;2023-07-09T14:13:14;27.07;39.88
65637;DHT22;52327;42.622;23.316;2023-07-09T14:15:39;27.88;39.49
65637;DHT22;52327;42.622;23.316;2023-07-09T14:18:12;28.27;38.72
65637;DHT22;52327;42.622;23.316;2023-07-09T14:20:38;26.98;40.45
65637;DHT22;52327;42.622;23.316;2023-07-09T14:23:04;26.73;41.40
65637;DHT22;52327;42.622;23.316;2023-07-09T14:25:30;27.37;40.73
65637;DHT22;52327;42.622;23.316;2023-07-09T14:27:55;27.81;39.61
65637;DHT22;52327;42.622;23.316;2023-07-09T14:30:23;28.88;38.74
65637;DHT22;52327;42.622;23.316;2023-07-09T14:32:50;28.53;38.59
65637;DHT22;52327;42.622;23.316;2023-07-09T14:35:19;28.07;38.51
65637;DHT22;52327;42.622;23.316;2023-07-09T14:37:47;28.00;38.87
65637;DHT22;52327;42.622;23.316;2023-07-09T14:40:13;28.41;39.14
65637;DHT22;52327;42.622;23.316;2023-07-09T14:42:39;27.79;39.50
65637;DHT22;52327;42.622;23.316;2023-07-09T14:45:16;27.58;40.22
65637;DHT22;52327;42.622;23.316;2023-07-09T14:47:42;26.50;41.05
65637;DHT22;52327;42.622;23.316;2023-07-09T14:50:08;26.49;41.84
65637;DHT22;52327;42.622;23.316;2023-07-09T14:52:35;26.40;42.80
65637;DHT22;52327;42.622;23.316;2023-07-09T14:55:01;26.13;42.33
65637;DHT22;52327;42.622;23.316;2023-07-09T14:57:27;26.05;41.07
65637;DHT22;52327;42.622;23.316;2023-07-09T14:59:56;25.67;42.07
65637;DHT22;52327;42.622;23.316;2023-07-09T15:02:33;25.31;42.39
65637;DHT22;52327;42.622;23.316;2023-07-09T15:05:05;25.27;42.55
65637;DHT22;52327;42.622;23.316;2023-07-09T15:07:32;25.23;42.59
65637;DHT22;52327;42.622;23.316;2023-07-09T15:09:59;25.24;42.40
65637;DHT22;52327;42.622;23.316;2023-07-09T15:12:28;25.20;42.00
65637;DHT22;52327;42.622;23.316;2023-07-09T15:15:11;24.99;41.95
65637;DHT22;52327;42.622;23.316;2023-07-09T15:17:37;24.83;42.97
65637;DHT22;52327;42.622;23.316;2023-07-09T15:20:03;24.73;43.13
65637;DHT22;52327;42.622;23.316;2023-07-09T15:22:34;24.83;42.78
65637;DHT22;52327;42.622;23.316;2023-07-09T15:25:00;24.59;42.65
65637;DHT22;52327;42.622;23.316;2023-07-09T15:27:26;24.68;43.19
65637;DHT22;52327;42.622;23.316;2023-07-09T15:29:52;24.63;42.88
65637;DHT22;52327;42.622;23.316;2023-07-09T15:32:18;24.68;43.18
65637;DHT22;52327;42.622;23.316;2023-07-09T15:34:44;24.62;43.18
65637;DHT22;52327;42.622;23.316;2023-07-09T15:37:13;24.43;43.38
65637;DHT22;52327;42.622;23.316;2023-07-09T15:39:40;24.24;43.64
65637;DHT22;52327;42.622;23.316;2023-07-09T15:42:11;24.42;44.13
65637;DHT22;52327;42.622;23.316;2023-07-09T15:44:37;24.38;43.84
65637;DHT22;52327;42.622;23.316;2023-07-09T15:47:02;24.35;43.80
65637;DHT22;52327;42.622;23.316;2023-07-09T15:49:30;24.35;44.05
65637;DHT22;52327;42.622;23.316;2023-07-09T15:51:55;24.29;43.44
65637;DHT22;52327;42.622;23.316;2023-07-09T15:54:23;24.11;44.41